Chelmsford, Massachusetts
Current Conditions -  °F | °C
As of 8:56 PM on Friday 19 Dec 2014 (Local Time) from KBED Reporting Station
Clear Clear  
Wind Chill: 22°   Ceiling: Unl
Heat Index: 27°   Visibility: 10mi
Dew Point: 19°   Wind: 5mph
Humidity: 72%   Direction: 290°WNW
Pressure: 30.1"   Gusts: NA
Location:  42.6°N, 71.35°W
Report Text: KBED 200156Z 29004KT 10SM CLR M03/M07 A3010 RMK AO2 SLP209 T10281072
Loading
Personal Weather Stations






























Interactive Weather Map New forecast layout! Learn more

10-Day Weather Forecast

Advertisements
Track Severe Weather on mobile